Ghanzi, Botswana
Current Conditions -  °F | °C
As of 9:00 AM on Wednesday 26 Nov 2014 (Local Time) from FBMN Reporting Station
Clear Clear  
Wind Chill: 30°   Ceiling: Unl
Heat Index: 30°   Visibility: 6mi
Dew Point: 15°   Wind: 9mph
Humidity: 40%   Direction: 280°W
Pressure: 30"   Gusts: NA
Location:  21.7°S, 21.64°E
Report Text: FBMN 260700Z 28008KT CAVOK 30/15 Q1016
Loading
Personal Weather Stations






























Interactive Weather Map New forecast layout! Learn more

10-Day Weather Forecast

Advertisements
Track Severe Weather on mobile